Latest Weather Observations for Toowoomba

IDQ60901

Issued at 3:35 pm EST Saturday 23 August 2014 (issued every 10 minutes, with the page automatically refreshed every 10 minutes)

About weather observations | Map of Brisbane area stations | Latest observations for Brisbane area | Other Formats
Station Details ID: 041529 Name: TOOWOOMBA AIRPORT Lat: -27.54 Lon: 151.91 Height: 640.9 m
Data from the previous 72 hours. | See also: Recent months at Toowoomba
Date/Time
EST
Tmp

°C
App
Tmp
°C
Dew
Point
°C
Rel
Hum
%
Delta-T

°C
Wind Press
QNH
hPa
Press
MSL
hPa
Rain
since
9 am
mm
Dir
 
Spd
km/h
Gust
km/h
Spd
kts
Gust
kts
23/03:30pm 12.5 8.9 10.4 87 1.1 SE 20 26 11 14 1024.0 - 0.8
23/03:00pm 13.0 8.9 10.0 82 1.6 SE 22 32 12 17 1023.9 1023.1 0.8
23/02:30pm 13.3 8.9 10.3 82 1.6 SE 24 32 13 17 1024.0 - 0.8
23/02:00pm 13.2 8.8 10.4 83 1.5 SE 24 33 13 18 1024.1 - 0.8
23/01:30pm 12.7 8.8 10.8 88 1.0 SE 22 28 12 15 1024.3 - 0.8
23/01:00pm 12.5 9.1 11.1 91 0.8 SE 20 24 11 13 1024.4 - 0.8
23/12:31pm 12.2 8.6 10.4 89 1.0 SE 20 30 11 16 1024.7 - 0.6
23/12:30pm 12.2 8.6 10.6 90 0.9 SE 20 30 11 16 1024.7 - 0.6
23/12:15pm 12.3 9.3 10.7 90 0.9 SE 17 20 9 11 1024.8 - 0.6
23/12:00pm 12.3 9.3 10.5 89 1.0 ESE 17 22 9 12 1025.0 1024.3 0.6
23/11:30am 12.5 7.0 10.4 87 1.1 ESE 30 39 16 21 1025.1 - 0.4
23/11:00am 12.3 6.8 10.5 89 1.0 ESE 30 37 16 20 1025.4 - 0.2
23/10:30am 12.6 8.3 10.7 88 1.0 ESE 24 32 13 17 1025.4 - 0.0
23/10:00am 12.6 7.9 10.5 87 1.1 ESE 26 33 14 18 1025.4 - 0.0
23/09:30am 12.2 7.8 10.3 88 1.0 ESE 24 30 13 16 1025.4 - 0.0
23/09:00am 11.4 6.1 9.7 89 0.9 ESE 28 37 15 20 1025.5 1024.8 8.0
23/08:30am 11.1 5.3 9.5 90 0.8 ESE 30 37 16 20 1025.1 - 8.0
23/08:00am 11.1 5.3 9.4 89 0.9 ESE 30 37 16 20 1024.8 - 8.0
23/07:30am 10.8 4.9 9.1 89 0.9 ESE 30 39 16 21 1024.3 - 8.0
23/07:28am 10.7 4.8 9.0 89 0.9 ESE 30 39 16 21 1024.3 - 8.0
23/07:00am 10.4 7.0 9.0 91 0.7 SE 17 20 9 11 1024.3 - 8.0
23/06:30am 10.0 6.9 8.8 92 0.6 ESE 15 22 8 12 1024.1 - 8.0
23/06:00am 10.3 6.4 8.6 89 0.9 ESE 19 24 10 13 1023.5 1022.8 8.0
23/05:30am 10.5 6.1 8.8 89 0.9 SE 22 28 12 15 1023.2 - 8.0
23/05:00am 10.3 5.8 8.7 90 0.8 ESE 22 30 12 16 1023.1 - 8.0
23/04:30am 10.2 5.3 8.6 90 0.8 ESE 24 32 13 17 1022.9 - 8.0
23/04:00am 10.3 4.7 8.7 90 0.8 ESE 28 39 15 21 1022.9 - 8.0
23/03:30am 10.1 4.9 8.9 92 0.6 ESE 26 43 14 23 1023.0 - 8.0
23/03:00am 10.0 4.8 8.9 93 0.6 ESE 26 32 14 17 1023.8 1023.0 7.8
23/02:30am 10.1 6.1 9.0 93 0.6 SE 20 28 11 15 1024.1 - 7.8
23/02:00am 10.0 6.0 9.2 95 0.4 ESE 20 30 11 16 1024.5 - 7.8
23/01:30am 10.1 5.8 9.2 94 0.5 ESE 22 32 12 17 1024.5 - 7.8
23/01:17am 10.3 6.0 9.5 95 0.4 ESE 22 32 12 17 1024.5 - 7.6
23/01:07am 10.1 8.3 9.6 97 0.3 SSE 9 13 5 7 1024.5 - 7.6
23/01:00am 10.1 5.5 9.6 97 0.3 ESE 24 33 13 18 1024.6 - 7.6
23/12:30am 10.3 6.4 9.5 95 0.4 SE 20 26 11 14 1025.3 - 7.4
23/12:00am 10.3 6.5 9.7 96 0.3 ESE 20 28 11 15 1025.5 1024.8 7.2
 
Date/Time
EST
Tmp

°C
App
Tmp
°C
Dew
Point
°C
Rel
Hum
%
Delta-T

°C
Wind Press
QNH
hPa
Press
MSL
hPa
Rain
since
9 am
mm
Dir
 
Spd
km/h
Gust
km/h
Spd
kts
Gust
kts
22/11:30pm 10.2 6.0 9.7 97 0.3 ESE 22 30 12 16 1025.3 - 7.2
22/11:00pm 10.1 5.5 9.5 96 0.3 ESE 24 30 13 16 1025.6 - 6.6
22/10:30pm 10.4 5.0 9.5 94 0.5 E 28 33 15 18 1025.8 - 6.2
22/10:00pm 10.3 6.1 9.7 96 0.3 ESE 22 30 12 16 1025.7 - 6.2
22/09:30pm 10.3 6.4 9.5 95 0.4 ESE 20 32 11 17 1025.8 - 5.8
22/09:00pm 10.4 6.7 9.5 94 0.5 ESE 19 24 10 13 1025.9 1025.2 5.4
22/08:30pm 10.6 8.5 9.8 95 0.4 SE 11 17 6 9 1026.1 - 5.4
22/08:00pm 10.6 7.4 9.8 95 0.4 SE 17 22 9 12 1026.0 - 5.4
22/07:30pm 10.7 7.5 10.1 96 0.3 SE 17 22 9 12 1026.2 - 5.2
22/07:00pm 10.6 6.9 10.0 96 0.3 ESE 20 26 11 14 1025.9 - 5.0
22/06:30pm 10.7 7.5 10.1 96 0.3 ESE 17 24 9 13 1025.9 - 4.6
22/06:00pm 10.8 7.3 10.2 96 0.3 ESE 19 24 10 13 1025.6 1024.9 4.2
22/05:30pm 10.9 7.2 10.3 96 0.3 ESE 20 24 11 13 1025.3 - 3.8
22/05:00pm 11.2 7.8 10.6 96 0.3 ESE 19 24 10 13 1025.4 - 3.4
22/04:47pm 11.3 7.7 10.7 96 0.3 ESE 20 26 11 14 1024.9 - 3.0
22/04:30pm 11.4 8.4 10.6 95 0.4 ESE 17 20 9 11 1025.0 - 2.4
22/04:23pm 11.6 9.4 10.8 95 0.4 ESE 13 20 7 11 1024.9 - 1.6
22/04:04pm 11.6 9.4 10.7 94 0.5 ESE 13 17 7 9 1024.7 - 1.0
22/04:00pm 11.7 9.5 10.8 94 0.5 ESE 13 17 7 9 1024.7 - 0.8
22/03:30pm 11.7 8.4 10.8 94 0.5 ESE 19 24 10 13 1024.6 - 0.8
22/03:28pm 11.7 8.4 10.8 94 0.5 ESE 19 24 10 13 1024.6 - 0.8
22/03:12pm 11.6 8.2 10.7 94 0.5 ESE 19 24 10 13 1024.5 - 0.8
22/03:11pm 11.7 8.4 10.8 94 0.5 ESE 19 24 10 13 1024.6 - 0.8
22/03:08pm 11.8 8.3 10.9 94 0.5 ESE 20 28 11 15 1024.6 - 0.8
22/03:00pm 11.8 7.9 10.7 93 0.6 ESE 22 28 12 15 1024.6 1023.9 0.8
22/02:51pm 11.9 8.4 10.8 93 0.6 ESE 20 24 11 13 1024.5 - 0.6
22/02:30pm 12.0 8.6 10.7 92 0.7 ESE 19 24 10 13 1024.7 - 0.4
22/02:00pm 12.2 8.3 10.8 91 0.8 E 22 30 12 16 1024.8 - 0.4
22/01:30pm 12.5 7.6 10.0 85 1.3 E 26 33 14 18 1024.9 - 0.0
22/01:00pm 12.6 7.4 10.3 86 1.2 E 28 37 15 20 1024.9 - 0.0
22/12:58pm 12.6 7.0 10.3 86 1.2 E 30 39 16 21 1024.9 - 0.0
22/12:30pm 12.1 6.2 10.5 90 0.9 ESE 32 43 17 23 1025.1 - 0.0
22/12:00pm 12.3 6.2 10.5 89 1.0 E 33 44 18 24 1025.8 1025.1 0.0
22/11:45am 12.7 7.6 11.8 94 0.5 E 30 39 16 21 1026.0 - 0.0
22/11:30am 11.9 5.9 10.8 93 0.6 E 33 44 18 24 1026.1 - 0.0
22/11:27am 11.8 5.4 10.7 93 0.6 E 35 48 19 26 1026.2 - 0.0
22/11:18am 12.0 5.4 10.1 88 1.0 E 35 46 19 25 1026.3 - 0.0
22/11:00am 12.4 6.6 9.6 83 1.5 E 30 39 16 21 1026.5 - 0.0
22/10:30am 12.3 7.0 9.7 84 1.4 E 28 39 15 21 1027.0 - 0.0
22/10:00am 11.5 6.6 9.9 90 0.8 E 26 35 14 19 1027.0 - 0.0
22/09:30am 11.3 5.1 9.4 88 1.0 E 32 39 17 21 1026.7 - 0.0
22/09:00am 11.6 5.8 9.3 86 1.2 E 30 39 16 21 1026.5 1025.8 0.2
22/08:30am 10.6 5.2 9.4 92 0.6 E 28 39 15 21 1026.4 - 0.2
22/08:00am 10.2 5.5 9.1 93 0.6 E 24 30 13 16 1026.4 - 0.2
22/07:30am 10.2 4.7 9.0 92 0.6 E 28 37 15 20 1026.1 - 0.2
22/07:00am 10.1 4.9 8.7 91 0.7 E 26 32 14 17 1025.7 - 0.2
22/06:30am 10.0 5.9 8.6 91 0.7 E 20 28 11 15 1025.6 - 0.2
22/06:00am 10.1 5.2 8.4 89 0.9 E 24 32 13 17 1025.3 1024.5 0.2
22/05:30am 10.1 4.8 8.4 89 0.9 E 26 35 14 19 1024.9 - 0.0
22/05:00am 10.1 4.7 8.2 88 1.0 E 26 35 14 19 1024.5 - 0.0
22/04:30am 10.2 4.1 8.3 88 1.0 E 30 39 16 21 1024.0 - 0.0
22/04:00am 10.1 5.2 8.4 89 0.9 E 24 32 13 17 1023.9 - 0.0
22/03:30am 10.2 4.5 8.5 89 0.9 E 28 35 15 19 1024.1 - 0.0
22/03:00am 10.2 4.9 8.5 89 0.9 E 26 32 14 17 1024.1 1023.4 0.0
22/02:30am 10.1 5.2 8.4 89 0.9 E 24 28 13 15 1024.7 - 0.0
22/02:00am 10.1 6.1 8.9 92 0.6 E 20 28 11 15 1025.3 - 0.0
22/01:30am 10.2 5.9 9.3 94 0.5 E 22 28 12 15 1025.8 - 0.0
22/01:00am 10.4 5.8 9.5 94 0.5 E 24 30 13 16 1025.9 - 0.0
22/12:30am 10.4 5.8 9.5 94 0.5 E 24 35 13 19 1026.1 - 0.0
22/12:00am 10.4 4.2 9.3 93 0.6 E 32 41 17 22 1025.6 1024.9 0.0
 
Date/Time
EST
Tmp

°C
App
Tmp
°C
Dew
Point
°C
Rel
Hum
%
Delta-T

°C
Wind Press
QNH
hPa
Press
MSL
hPa
Rain
since
9 am
mm
Dir
 
Spd
km/h
Gust
km/h
Spd
kts
Gust
kts
21/11:30pm 10.8 4.9 9.1 89 0.9 E 30 37 16 20 1026.1 - 0.0
21/11:00pm 11.4 5.0 8.6 83 1.4 E 32 43 17 23 1025.8 - 0.0
21/10:30pm 11.5 4.9 8.5 82 1.5 E 33 43 18 23 1025.8 - 0.0
21/10:00pm 11.6 5.0 8.5 81 1.6 E 33 44 18 24 1025.5 - 0.0
21/09:30pm 11.7 4.6 8.2 79 1.8 E 35 43 19 23 1025.1 - 0.0
21/09:00pm 11.8 4.7 8.1 78 1.9 E 35 44 19 24 1025.1 1024.4 0.0
21/08:30pm 12.0 5.5 8.1 77 2.0 E 32 43 17 23 1025.0 - 0.0
21/08:00pm 12.3 5.8 8.0 75 2.2 E 32 43 17 23 1024.7 - 0.0
21/07:30pm 12.7 6.1 7.8 72 2.5 E 32 41 17 22 1024.3 - 0.0
21/07:00pm 13.1 6.9 7.8 70 2.7 E 30 39 16 21 1024.1 - 0.0
21/06:30pm 13.4 7.6 7.8 69 2.9 E 28 35 15 19 1023.8 - 0.0
21/06:00pm 13.8 8.7 7.6 66 3.1 ESE 24 32 13 17 1023.3 1022.6 0.0
21/05:30pm 14.3 9.1 7.4 63 3.5 E 24 32 13 17 1023.1 - 0.0
21/05:00pm 15.5 9.1 7.0 57 4.3 E 30 39 16 21 1022.5 - 0.0
21/04:30pm 16.3 9.8 6.4 52 5.0 E 30 41 16 22 1022.6 - 0.0
21/04:00pm 17.0 10.8 6.2 49 5.5 E 28 35 15 19 1022.1 - 0.0
21/03:30pm 17.5 11.5 7.0 50 5.4 E 28 39 15 21 1021.8 - 0.0
21/03:00pm 17.8 11.7 6.7 48 5.7 E 28 37 15 20 1021.7 1021.0 0.0
21/02:30pm 18.3 12.4 7.7 50 5.6 E 28 39 15 21 1022.0 - 0.0
21/02:00pm 17.6 12.2 6.5 48 5.7 E 24 33 13 18 1022.4 - 0.0
21/01:30pm 17.5 11.9 7.0 50 5.4 ESE 26 33 14 18 1022.5 - 0.0
21/01:00pm 17.9 12.3 7.0 49 5.6 E 26 35 14 19 1022.7 - 0.0
21/12:30pm 17.0 10.6 7.1 52 5.1 E 30 39 16 21 1023.1 - 0.0
21/12:00pm 16.4 10.8 7.3 55 4.7 E 26 37 14 20 1023.7 1022.9 0.0
21/11:30am 16.2 10.3 7.4 56 4.5 E 28 39 15 21 1024.1 - 0.0
21/11:00am 15.7 9.8 7.5 58 4.2 E 28 37 15 20 1024.3 - 0.0
21/10:30am 14.9 8.2 7.2 60 3.9 E 32 39 17 21 1024.4 - 0.0
21/10:00am 14.3 8.3 7.1 62 3.6 E 28 37 15 20 1024.4 - 0.0
21/09:30am 13.4 7.4 7.0 65 3.2 E 28 33 15 18 1024.4 - 0.0
21/09:00am 13.2 7.3 7.4 68 2.9 E 28 32 15 17 1024.4 1023.7 0.0
21/08:30am 12.1 7.3 7.4 73 2.4 E 22 28 12 15 1024.2 - 0.0
21/08:00am 11.2 6.1 7.7 79 1.8 E 24 32 13 17 1024.1 - 0.0
21/07:30am 10.2 5.0 7.3 82 1.4 E 24 32 13 17 1023.5 - 0.0
21/07:00am 9.5 4.0 7.4 87 1.0 E 26 30 14 16 1023.2 - 0.0
21/06:30am 9.0 3.8 7.3 89 0.8 E 24 30 13 16 1023.2 - 0.0
21/06:00am 9.0 3.4 7.3 89 0.8 E 26 32 14 17 1022.9 1022.2 0.0
21/05:30am 9.1 3.2 7.5 90 0.8 E 28 32 15 17 1022.8 - 0.0
21/05:00am 9.1 3.6 7.4 89 0.8 E 26 30 14 16 1022.7 - 0.0
21/04:30am 9.2 3.3 7.5 89 0.8 E 28 32 15 17 1022.7 - 0.0
21/04:00am 9.0 3.8 7.1 88 0.9 E 24 28 13 15 1022.5 - 0.0
21/03:30am 9.3 4.1 7.3 87 1.0 E 24 30 13 16 1022.4 - 0.0
21/03:00am 9.2 3.9 7.0 86 1.1 E 24 28 13 15 1022.5 1021.7 0.0
21/02:30am 9.3 4.0 6.9 85 1.2 E 24 30 13 16 1022.7 - 0.0
21/02:00am 9.6 4.0 7.0 84 1.3 E 26 32 14 17 1022.8 - 0.0
21/01:30am 9.5 5.0 6.8 83 1.3 E 20 26 11 14 1023.1 - 0.0
21/01:00am 10.1 5.6 7.0 81 1.5 E 20 26 11 14 1023.3 - 0.0
21/12:30am 10.3 5.0 7.0 80 1.6 E 24 33 13 18 1023.4 - 0.0
21/12:00am 10.4 5.1 6.9 79 1.7 E 24 35 13 19 1023.4 1022.7 0.0
 
Date/Time
EST
Tmp

°C
App
Tmp
°C
Dew
Point
°C
Rel
Hum
%
Delta-T

°C
Wind Press
QNH
hPa
Press
MSL
hPa
Rain
since
9 am
mm
Dir
 
Spd
km/h
Gust
km/h
Spd
kts
Gust
kts
20/11:30pm 10.7 5.0 6.8 77 1.9 E 26 37 14 20 1023.4 - 0.0
20/11:00pm 11.3 5.2 6.8 74 2.2 E 28 35 15 19 1023.5 - 0.0
20/10:30pm 11.7 5.4 7.2 74 2.2 E 30 39 16 21 1023.5 - 0.0
20/10:00pm 11.9 6.5 8.0 77 2.0 E 26 32 14 17 1023.5 - 0.0
20/09:30pm 12.3 6.6 8.4 77 2.0 E 28 33 15 18 1023.4 - 0.0
20/09:00pm 12.8 7.5 8.3 74 2.3 E 26 35 14 19 1023.4 1022.7 0.0
20/08:30pm 13.0 8.2 7.5 69 2.8 E 22 28 12 15 1023.3 - 0.0
20/08:00pm 13.4 8.5 7.0 65 3.2 E 22 28 12 15 1023.0 - 0.0
20/07:30pm 14.2 8.9 6.8 61 3.7 E 24 32 13 17 1022.7 - 0.0
20/07:00pm 14.7 9.8 6.8 59 4.0 E 22 26 12 14 1022.3 - 0.0
20/06:30pm 15.1 10.6 6.1 55 4.5 E 19 24 10 13 1021.8 - 0.0
20/06:00pm 15.3 11.6 6.1 54 4.6 E 15 20 8 11 1021.3 1020.6 0.0
20/05:30pm 15.8 12.0 6.0 52 4.9 E 15 17 8 9 1020.9 - 0.0
20/05:00pm 16.5 12.4 6.1 50 5.2 E 17 20 9 11 1020.5 - 0.0
20/04:30pm 16.8 13.3 5.4 47 5.7 E 13 17 7 9 1020.0 - 0.0
20/04:00pm 17.9 14.3 5.2 43 6.3 E 13 17 7 9 1019.8 - 0.0

Latest Capital City Observations: Canberra | Sydney | Melbourne | Brisbane | Adelaide | Perth | Hobart | Darwin

Other Formats:

Comma delimited format used in spreadsheet applications
http://www.bom.gov.au/fwo/IDQ60901/IDQ60901.95551.axf

JavaScript Object Notation format (JSON) in row-major order
http://www.bom.gov.au/fwo/IDQ60901/IDQ60901.95551.json